Time;durP1;ratioP1;P1;durP2;ratioP2;P2;SDS_P1;SDS_P2;PMS_P1;PMS_P2;Temp;Humidity;BMP_temperature;BMP_pressure;BME280_temperature;BME280_humidity;BME280_pressure;Samples;Min_cycle;Max_cycle;Signal;HPM_P1;HPM_P2
2024/04/06 00:00:03;;;;;;;16.63;1.43;;;15.50;99.90;;;;;;5037750;28;20189;-81
2024/04/06 00:02:28;;;;;;;13.50;1.47;;;15.50;99.90;;;;;;5019809;28;20440;-81
2024/04/06 00:04:56;;;;;;;15.13;1.70;;;15.40;99.90;;;;;;5019203;28;20419;-82
2024/04/06 00:07:23;;;;;;;12.50;1.00;;;15.40;99.90;;;;;;5019671;28;20174;-83
2024/04/06 00:09:48;;;;;;;12.73;1.10;;;15.40;99.90;;;;;;5036907;28;21007;-81
2024/04/06 00:12:14;;;;;;;13.60;1.63;;;15.40;99.90;;;;;;5036274;28;20424;-82
2024/04/06 00:14:40;;;;;;;14.00;1.60;;;15.40;99.90;;;;;;5036648;28;20650;-82
2024/04/06 00:17:05;;;;;;;15.07;1.70;;;15.40;99.90;;;;;;5036490;28;20205;-81
2024/04/06 00:19:32;;;;;;;13.60;1.30;;;15.40;99.90;;;;;;5037366;28;20198;-83
2024/04/06 00:21:58;;;;;;;14.40;1.30;;;15.30;99.90;;;;;;5036821;28;20280;-81
2024/04/06 00:24:24;;;;;;;15.07;1.63;;;15.30;99.90;;;;;;5036701;28;20405;-82
2024/04/06 00:26:50;;;;;;;13.50;1.53;;;15.30;99.90;;;;;;5018538;28;20170;-81
2024/04/06 00:29:16;;;;;;;13.77;1.50;;;15.30;99.90;;;;;;5036321;28;20209;-81
2024/04/06 00:31:42;;;;;;;13.50;1.20;;;15.30;99.90;;;;;;5036350;28;20424;-81
2024/04/06 00:34:07;;;;;;;12.90;1.30;;;15.20;99.90;;;;;;5018766;28;20409;-81
2024/04/06 00:36:33;;;;;;;15.50;1.30;;;15.20;99.90;;;;;;5036011;28;20169;-81
2024/04/06 00:38:59;;;;;;;14.07;1.63;;;15.20;99.90;;;;;;5036221;28;20200;-82
2024/04/06 00:41:25;;;;;;;21.47;1.80;;;15.20;99.90;;;;;;5018720;28;20248;-82
2024/04/06 00:43:50;;;;;;;14.30;1.43;;;15.20;99.90;;;;;;5036077;28;20538;-81
2024/04/06 00:46:16;;;;;;;15.43;2.00;;;15.10;99.90;;;;;;5035957;28;20162;-82
2024/04/06 00:48:45;;;;;;;13.17;1.60;;;15.10;99.90;;;;;;5035776;28;20712;-83
2024/04/06 00:51:11;;;;;;;13.67;1.73;;;15.10;99.90;;;;;;5018440;28;20440;-81
2024/04/06 00:53:37;;;;;;;13.80;1.50;;;15.10;99.90;;;;;;5035791;28;20905;-83
2024/04/06 00:56:02;;;;;;;13.70;1.60;;;15.00;99.90;;;;;;5035968;28;20197;-82
2024/04/06 00:58:28;;;;;;;12.33;0.97;;;15.00;99.90;;;;;;5035900;28;20192;-82
2024/04/06 01:00:54;;;;;;;21.43;1.53;;;15.00;99.90;;;;;;5035554;28;20170;-82
2024/04/06 01:03:20;;;;;;;16.07;1.57;;;15.00;99.90;;;;;;5018245;28;20454;-82
2024/04/06 01:05:46;;;;;;;15.03;1.50;;;15.00;99.90;;;;;;5018112;28;20492;-82
2024/04/06 01:08:12;;;;;;;14.80;1.63;;;15.00;99.90;;;;;;5035467;28;20449;-81
2024/04/06 01:10:38;;;;;;;12.60;1.10;;;15.00;99.90;;;;;;5017797;28;20408;-82
2024/04/06 01:13:04;;;;;;;13.20;1.23;;;15.00;99.90;;;;;;5035486;28;20236;-82
2024/04/06 01:15:32;;;;;;;14.30;2.20;;;14.90;99.90;;;;;;5017588;28;20591;-81
2024/04/06 01:17:58;;;;;;;13.57;1.70;;;14.90;99.90;;;;;;5035801;28;20427;-82
2024/04/06 01:20:26;;;;;;;14.43;1.90;;;14.90;99.90;;;;;;5035443;28;20487;-82
2024/04/06 01:22:52;;;;;;;13.87;1.77;;;14.90;99.90;;;;;;5035700;28;20989;-82
2024/04/06 01:25:17;;;;;;;14.13;1.60;;;14.90;99.90;;;;;;5035425;28;20424;-82
2024/04/06 01:27:46;;;;;;;15.50;1.37;;;14.90;99.90;;;;;;5035370;28;20169;-81
2024/04/06 01:30:14;;;;;;;13.20;1.40;;;14.90;99.90;;;;;;5017649;28;20228;-82
2024/04/06 01:32:50;;;;;;;12.27;1.20;;;14.80;99.90;;;;;;5036083;28;20413;-82
2024/04/06 01:35:17;;;;;;;13.47;1.70;;;14.80;99.90;;;;;;5035146;28;20487;-82
2024/04/06 01:37:44;;;;;;;13.20;1.80;;;14.80;99.90;;;;;;5035910;28;20925;-82
2024/04/06 01:40:10;;;;;;;14.93;1.60;;;14.70;99.90;;;;;;5035466;28;20914;-82
2024/04/06 01:42:36;;;;;;;12.87;1.20;;;14.70;99.90;;;;;;5035168;28;20424;-81
2024/04/06 01:45:02;;;;;;;14.97;1.93;;;14.60;99.90;;;;;;5035183;28;20420;-81
2024/04/06 01:47:29;;;;;;;14.30;1.60;;;14.60;99.90;;;;;;5017406;28;20440;-81
2024/04/06 01:49:55;;;;;;;13.00;1.67;;;14.60;99.90;;;;;;5017766;28;20444;-82
2024/04/06 01:52:21;;;;;;;13.37;1.80;;;14.50;99.90;;;;;;5034916;28;20520;-81
2024/04/06 01:54:46;;;;;;;14.60;1.80;;;14.50;99.90;;;;;;5035693;28;20424;-81
2024/04/06 01:57:12;;;;;;;12.80;1.50;;;14.50;99.90;;;;;;5035030;28;20173;-81
2024/04/06 01:59:40;;;;;;;14.77;2.10;;;14.50;99.90;;;;;;5034626;28;20225;-82
2024/04/06 02:02:06;;;;;;;12.60;1.30;;;14.50;99.90;;;;;;5033684;28;20281;-81
2024/04/06 02:04:32;;;;;;;13.20;1.50;;;14.50;99.90;;;;;;5016549;28;20419;-80
2024/04/06 02:06:57;;;;;;;16.03;1.53;;;14.40;99.90;;;;;;5034307;28;20406;-81
2024/04/06 02:09:23;;;;;;;13.90;1.57;;;14.40;99.90;;;;;;5034218;28;20472;-81
2024/04/06 02:11:49;;;;;;;14.33;2.60;;;14.30;99.90;;;;;;5034119;28;20190;-81
2024/04/06 02:14:15;;;;;;;13.70;1.80;;;14.30;99.90;;;;;;5034149;28;20166;-82
2024/04/06 02:16:40;;;;;;;15.27;2.33;;;14.30;99.90;;;;;;5034793;28;20412;-81
2024/04/06 02:19:06;;;;;;;14.33;1.50;;;14.20;99.90;;;;;;5034640;28;20200;-82
2024/04/06 02:21:32;;;;;;;18.50;1.70;;;14.20;99.90;;;;;;5034567;28;20186;-81
2024/04/06 02:23:57;;;;;;;14.20;1.60;;;14.20;99.90;;;;;;5034183;28;20232;-81
2024/04/06 02:26:24;;;;;;;14.20;1.77;;;14.10;99.90;;;;;;5034410;28;20194;-81
2024/04/06 02:28:49;;;;;;;14.10;1.77;;;14.10;99.90;;;;;;5034060;28;20602;-81
2024/04/06 02:31:15;;;;;;;14.80;1.40;;;14.10;99.90;;;;;;5034241;28;20425;-81
2024/04/06 02:33:41;;;;;;;13.10;1.77;;;14.00;99.90;;;;;;5034208;28;20170;-81
2024/04/06 02:36:07;;;;;;;13.63;1.67;;;14.00;99.90;;;;;;5034728;28;20252;-81
2024/04/06 02:38:32;;;;;;;14.53;1.97;;;14.00;99.90;;;;;;5016317;28;20577;-81
2024/04/06 02:40:59;;;;;;;16.67;1.60;;;13.90;99.90;;;;;;5016368;28;20177;-81
2024/04/06 02:43:25;;;;;;;13.47;1.73;;;13.90;99.90;;;;;;5016415;28;20186;-81
2024/04/06 02:45:50;;;;;;;16.63;2.43;;;13.90;99.90;;;;;;5033996;28;20420;-81
2024/04/06 02:48:16;;;;;;;13.97;1.73;;;13.90;99.90;;;;;;5033758;28;20201;-80
2024/04/06 02:50:42;;;;;;;13.60;1.80;;;13.90;99.90;;;;;;5033841;28;20167;-82
2024/04/06 02:53:08;;;;;;;14.37;1.60;;;13.90;99.90;;;;;;5034066;28;20689;-81
2024/04/06 02:55:33;;;;;;;13.47;1.90;;;13.90;99.90;;;;;;5016672;28;20624;-81
2024/04/06 02:57:59;;;;;;;13.10;1.60;;;13.90;99.90;;;;;;5016245;28;20408;-81
2024/04/06 03:00:25;;;;;;;13.20;1.33;;;13.90;99.90;;;;;;5033841;28;20458;-81
2024/04/06 03:02:51;;;;;;;12.83;1.70;;;13.90;99.90;;;;;;5033912;28;20567;-80
2024/04/06 03:05:18;;;;;;;13.40;1.57;;;13.90;99.90;;;;;;5033893;28;20404;-80
2024/04/06 03:07:44;;;;;;;13.53;1.73;;;14.00;99.90;;;;;;5033959;28;20253;-81
2024/04/06 03:10:10;;;;;;;13.70;1.80;;;14.00;99.90;;;;;;5033758;28;20440;-81
2024/04/06 03:12:37;;;;;;;13.43;1.60;;;13.90;99.90;;;;;;5034709;28;20420;-81
2024/04/06 03:15:03;;;;;;;12.97;1.63;;;13.90;99.90;;;;;;5019556;28;20455;-81
2024/04/06 03:17:28;;;;;;;13.93;1.40;;;13.80;99.90;;;;;;5037642;28;20403;-81
2024/04/06 03:19:54;;;;;;;19.43;2.00;;;13.80;99.90;;;;;;5037632;28;20447;-81
2024/04/06 03:22:20;;;;;;;12.43;1.30;;;13.80;99.90;;;;;;5037251;28;20190;-81
2024/04/06 03:24:45;;;;;;;16.07;1.83;;;13.70;99.90;;;;;;5037911;28;20193;-81
2024/04/06 03:27:11;;;;;;;13.47;1.70;;;13.70;99.90;;;;;;5037373;28;20162;-81
2024/04/06 03:29:37;;;;;;;14.80;1.77;;;13.70;99.90;;;;;;5037340;28;20204;-81
2024/04/06 03:32:02;;;;;;;13.30;1.40;;;13.70;99.90;;;;;;5037499;28;20185;-81
2024/04/06 03:34:28;;;;;;;13.10;1.63;;;13.70;99.90;;;;;;5037282;28;20174;-81
2024/04/06 03:36:54;;;;;;;13.50;1.70;;;13.60;99.90;;;;;;5037614;28;20173;-83
2024/04/06 03:39:19;;;;;;;13.00;1.73;;;13.60;99.90;;;;;;5037631;28;20166;-83
2024/04/06 03:41:45;;;;;;;13.60;1.67;;;13.50;99.90;;;;;;5037062;28;20184;-82
2024/04/06 03:44:10;;;;;;;13.10;1.73;;;13.50;99.90;;;;;;5037201;28;20192;-82
2024/04/06 03:46:36;;;;;;;13.13;1.47;;;13.50;99.90;;;;;;5036665;28;20663;-83
2024/04/06 03:49:02;;;;;;;14.13;1.67;;;13.50;99.90;;;;;;5037291;28;20181;-82
2024/04/06 03:51:27;;;;;;;13.10;1.80;;;13.40;99.90;;;;;;5037036;28;20663;-83
2024/04/06 03:53:54;;;;;;;13.60;1.93;;;13.40;99.90;;;;;;5037328;28;20169;-83
2024/04/06 03:56:19;;;;;;;13.30;1.93;;;13.40;99.90;;;;;;5037315;28;20212;-83
2024/04/06 03:58:45;;;;;;;13.83;1.90;;;13.40;99.90;;;;;;5036793;28;20408;-82
2024/04/06 04:01:11;;;;;;;14.90;2.43;;;13.40;99.90;;;;;;5036916;28;20171;-83
2024/04/06 04:03:37;;;;;;;13.87;2.17;;;13.30;99.90;;;;;;5037145;28;20528;-83
2024/04/06 04:06:04;;;;;;;13.40;1.77;;;13.30;99.90;;;;;;5036354;28;20166;-82
2024/04/06 04:08:30;;;;;;;13.67;2.17;;;13.30;99.90;;;;;;5036313;28;20535;-82
2024/04/06 04:10:56;;;;;;;14.83;2.43;;;13.30;99.90;;;;;;5018772;28;20515;-81
2024/04/06 04:13:23;;;;;;;16.20;2.43;;;13.20;99.90;;;;;;5036498;28;20411;-83
2024/04/06 04:15:49;;;;;;;14.60;2.33;;;13.20;99.90;;;;;;5035948;28;20455;-82
2024/04/06 04:18:16;;;;;;;15.47;1.90;;;13.20;99.90;;;;;;5036534;28;20520;-83
2024/04/06 04:20:42;;;;;;;14.93;1.67;;;13.20;99.90;;;;;;5036308;28;20432;-83
2024/04/06 04:23:10;;;;;;;13.93;2.00;;;13.20;99.90;;;;;;5036282;28;20448;-83
2024/04/06 04:25:36;;;;;;;17.27;1.83;;;13.20;99.90;;;;;;5035213;28;20407;-82
2024/04/06 04:28:02;;;;;;;14.30;1.90;;;13.20;99.90;;;;;;5036270;28;20412;-83
2024/04/06 04:30:27;;;;;;;14.17;1.93;;;13.20;99.90;;;;;;5035936;28;20979;-83
2024/04/06 04:32:53;;;;;;;16.40;2.43;;;13.10;99.90;;;;;;5036000;28;20181;-82
2024/04/06 04:35:20;;;;;;;14.60;2.03;;;13.10;99.90;;;;;;5035814;28;20400;-82
2024/04/06 04:37:46;;;;;;;13.10;1.63;;;13.10;99.90;;;;;;5035933;28;20443;-83
2024/04/06 04:40:12;;;;;;;13.40;1.70;;;13.10;99.90;;;;;;5036109;28;20401;-82
2024/04/06 04:42:38;;;;;;;15.40;1.83;;;13.10;99.90;;;;;;5018030;28;20193;-82
2024/04/06 04:45:09;;;;;;;17.00;2.80;;;13.10;99.90;;;;;;5035893;28;20416;-83
2024/04/06 04:47:34;;;;;;;16.03;1.97;;;13.10;99.90;;;;;;5035843;28;20409;-83
2024/04/06 04:50:02;;;;;;;16.70;1.73;;;13.10;99.90;;;;;;5035556;28;20453;-82
2024/04/06 04:52:28;;;;;;;13.47;1.93;;;13.00;99.90;;;;;;5035083;28;20681;-82
2024/04/06 04:54:54;;;;;;;19.90;2.47;;;12.90;99.90;;;;;;5035221;28;20412;-83
2024/04/06 04:57:20;;;;;;;15.20;2.43;;;12.90;99.90;;;;;;5036025;28;20173;-82
2024/04/06 04:59:46;;;;;;;16.67;2.87;;;12.90;99.90;;;;;;5035900;28;20647;-82
2024/04/06 05:02:11;;;;;;;13.73;2.13;;;12.90;99.90;;;;;;5035341;28;20439;-82
2024/04/06 05:04:37;;;;;;;16.60;2.20;;;12.90;99.90;;;;;;5035406;28;20169;-82
2024/04/06 05:07:03;;;;;;;16.20;2.57;;;12.90;99.90;;;;;;5035315;28;20535;-83
2024/04/06 05:09:28;;;;;;;15.80;1.77;;;12.90;99.90;;;;;;5035424;28;20348;-82
2024/04/06 05:11:54;;;;;;;21.90;3.03;;;12.90;99.90;;;;;;5035140;28;20217;-83
2024/04/06 05:14:20;;;;;;;13.80;2.60;;;12.90;99.90;;;;;;5035282;28;20170;-83
2024/04/06 05:16:45;;;;;;;14.60;1.97;;;12.80;99.90;;;;;;5034956;28;20249;-82
2024/04/06 05:19:11;;;;;;;13.67;2.27;;;12.90;99.90;;;;;;5107402;22;20230;-82
2024/04/06 05:21:37;;;;;;;19.80;2.90;;;12.90;99.90;;;;;;5021355;28;20248;-82
2024/04/06 05:24:03;;;;;;;14.57;2.40;;;12.90;99.90;;;;;;5038498;28;20392;-83
2024/04/06 05:26:29;;;;;;;14.67;2.47;;;12.80;99.90;;;;;;5038501;28;20158;-83
2024/04/06 05:28:55;;;;;;;17.90;3.07;;;12.80;99.90;;;;;;5038830;28;20194;-83
2024/04/06 05:31:20;;;;;;;15.80;2.73;;;12.80;99.90;;;;;;5038455;28;20933;-83
2024/04/06 05:33:46;;;;;;;16.27;2.20;;;12.90;99.90;;;;;;5038606;28;20722;-83
2024/04/06 05:36:14;;;;;;;15.03;2.30;;;12.90;99.90;;;;;;5020002;28;20653;-83
2024/04/06 05:38:40;;;;;;;17.30;2.97;;;12.90;99.90;;;;;;5021006;28;20709;-83
2024/04/06 05:41:05;;;;;;;14.37;2.20;;;13.00;99.90;;;;;;5038046;28;20519;-83
2024/04/06 05:43:32;;;;;;;15.38;3.30;;;13.00;99.90;;;;;;5020826;28;20178;-83
2024/04/06 05:46:05;;;;;;;17.10;2.40;;;13.10;99.90;;;;;;5039527;28;20169;-82
2024/04/06 05:48:31;;;;;;;15.10;2.97;;;13.20;99.90;;;;;;5021003;28;20201;-82
2024/04/06 05:51:00;;;;;;;17.33;2.13;;;13.20;99.90;;;;;;5037906;28;20239;-82
2024/04/06 05:53:25;;;;;;;18.75;2.88;;;13.30;99.90;;;;;;5021559;28;20415;-83
2024/04/06 05:55:54;;;;;;;13.33;2.07;;;13.30;99.90;;;;;;5038411;28;20590;-83
2024/04/06 05:58:19;;;;;;;18.20;3.13;;;13.30;99.90;;;;;;5022441;28;20162;-83
2024/04/06 06:00:45;;;;;;;15.07;2.20;;;13.30;99.90;;;;;;5038985;28;20774;-83
2024/04/06 06:03:11;;;;;;;14.43;2.43;;;13.40;99.90;;;;;;5045818;28;20190;-83
2024/04/06 06:05:37;;;;;;;15.83;2.60;;;13.40;99.90;;;;;;5043323;28;20859;-83
2024/04/06 06:08:03;;;;;;;14.70;1.90;;;13.40;99.90;;;;;;5036240;28;20408;-83
2024/04/06 06:10:28;;;;;;;13.63;2.33;;;13.40;99.90;;;;;;5019254;28;20775;-83
2024/04/06 06:12:54;;;;;;;13.30;1.67;;;13.50;99.90;;;;;;5035912;28;21040;-82
2024/04/06 06:15:20;;;;;;;19.63;3.23;;;13.50;99.90;;;;;;5035883;28;20181;-82
2024/04/06 06:17:45;;;;;;;15.00;2.33;;;13.50;99.90;;;;;;5018565;28;20546;-83
2024/04/06 06:20:11;;;;;;;15.60;2.33;;;13.50;99.90;;;;;;5036552;28;20162;-83
2024/04/06 06:22:37;;;;;;;14.17;1.90;;;13.50;99.90;;;;;;5036165;28;20200;-83
2024/04/06 06:25:06;;;;;;;17.63;2.30;;;13.60;99.90;;;;;;5018591;28;20197;-83
2024/04/06 06:27:32;;;;;;;17.40;2.40;;;13.60;99.90;;;;;;5018456;28;20639;-83
2024/04/06 06:30:00;;;;;;;15.17;2.40;;;13.70;99.90;;;;;;5035837;28;20498;-83
2024/04/06 06:32:25;;;;;;;17.07;2.67;;;13.80;99.90;;;;;;5036298;28;20190;-83
2024/04/06 06:34:51;;;;;;;15.97;2.67;;;13.80;99.90;;;;;;5035940;28;20389;-83
2024/04/06 06:37:17;;;;;;;15.40;2.40;;;13.80;99.90;;;;;;5036062;28;20241;-83
2024/04/06 06:39:42;;;;;;;13.40;2.10;;;13.80;99.90;;;;;;5035955;28;20175;-82
2024/04/06 06:42:11;;;;;;;14.80;2.07;;;14.00;99.90;;;;;;5036021;28;20289;-83
2024/04/06 06:44:37;;;;;;;16.37;2.57;;;14.00;99.90;;;;;;5035463;28;20180;-83
2024/04/06 06:47:05;;;;;;;16.70;2.38;;;14.00;99.90;;;;;;5037658;28;20404;-84
2024/04/06 06:49:31;;;;;;;12.47;1.70;;;14.10;99.90;;;;;;5024067;28;20194;-83
2024/04/06 06:51:57;;;;;;;13.87;2.07;;;14.20;99.90;;;;;;5040132;28;20475;-83
2024/04/06 06:54:23;;;;;;;16.37;2.20;;;14.20;99.90;;;;;;5022477;28;20914;-83
2024/04/06 06:56:49;;;;;;;13.00;2.10;;;14.30;99.90;;;;;;5039625;28;20406;-83
2024/04/06 06:59:15;;;;;;;12.70;1.93;;;14.30;99.90;;;;;;5040195;28;20170;-83
2024/04/06 07:01:40;;;;;;;17.23;2.33;;;14.50;99.90;;;;;;5022289;28;20185;-83
2024/04/06 07:04:06;;;;;;;13.30;1.90;;;14.60;99.90;;;;;;5042305;28;20408;-83
2024/04/06 07:06:32;;;;;;;14.80;2.23;;;14.60;99.90;;;;;;5041728;28;20166;-83
2024/04/06 07:08:58;;;;;;;14.20;2.13;;;14.60;99.90;;;;;;5040785;28;20258;-83
2024/04/06 07:11:24;;;;;;;14.03;2.13;;;14.70;99.90;;;;;;5040348;28;20456;-84
2024/04/06 07:13:50;;;;;;;13.77;2.33;;;14.80;99.90;;;;;;5040196;28;20408;-83
2024/04/06 07:16:16;;;;;;;13.73;1.87;;;14.90;99.90;;;;;;5023538;28;20408;-83
2024/04/06 07:18:46;;;;;;;13.50;1.90;;;15.00;99.90;;;;;;5042011;28;20416;-83
2024/04/06 07:21:15;;;;;;;14.63;2.20;;;15.10;99.90;;;;;;5042511;28;20181;-83
2024/04/06 07:23:44;;;;;;;12.67;1.60;;;15.30;99.90;;;;;;5026106;28;20408;-83
2024/04/06 07:26:10;;;;;;;14.67;1.90;;;15.40;99.90;;;;;;5039167;28;20527;-83
2024/04/06 07:28:39;;;;;;;15.40;2.00;;;15.50;99.90;;;;;;5021275;28;20487;-83
2024/04/06 07:31:08;;;;;;;14.23;1.73;;;15.60;99.90;;;;;;5039269;28;20427;-83
2024/04/06 07:33:33;;;;;;;12.93;1.83;;;15.70;99.90;;;;;;5038561;28;20519;-84
2024/04/06 07:35:59;;;;;;;13.27;1.83;;;15.70;99.90;;;;;;5039290;28;20799;-83
2024/04/06 07:38:28;;;;;;;12.87;1.60;;;15.80;99.90;;;;;;5040609;28;20150;-84
2024/04/06 07:41:01;;;;;;;13.03;1.70;;;15.90;99.90;;;;;;5048961;28;20249;-84
2024/04/06 07:43:27;;;;;;;15.07;2.20;;;16.00;88.80;;;;;;5046739;28;20385;-85
2024/04/06 07:45:53;;;;;;;13.87;1.60;;;16.10;64.60;;;;;;5047509;28;20393;-84
2024/04/06 07:48:19;;;;;;;13.00;1.67;;;16.10;39.70;;;;;;5045581;28;20393;-85
2024/04/06 07:50:45;;;;;;;12.97;1.60;;;16.20;23.80;;;;;;5028721;28;20424;-85
2024/04/06 07:53:12;;;;;;;14.17;1.60;;;16.30;15.00;;;;;;5044803;28;20182;-84
2024/04/06 07:55:38;;;;;;;14.00;1.87;;;16.40;1.00;;;;;;5045334;28;20405;-84
2024/04/06 07:58:04;;;;;;;16.57;1.80;;;16.50;1.00;;;;;;5046739;28;20432;-84
2024/04/06 08:00:30;;;;;;;12.37;1.50;;;16.60;1.00;;;;;;5046564;28;20381;-84
2024/04/06 08:02:55;;;;;;;14.23;1.60;;;16.70;1.00;;;;;;5031244;28;20505;-83
2024/04/06 08:05:21;;;;;;;12.80;1.33;;;16.90;1.00;;;;;;5047101;28;20220;-83
2024/04/06 08:07:47;;;;;;;12.53;1.37;;;16.90;1.00;;;;;;5040865;28;20725;-82
2024/04/06 08:10:17;;;;;;;13.87;1.77;;;17.00;1.00;;;;;;5041427;28;20202;-83
2024/04/06 08:12:43;;;;;;;15.60;1.67;;;17.20;1.00;;;;;;5041276;28;20186;-83
2024/04/06 08:15:13;;;;;;;15.33;2.07;;;17.30;1.00;;;;;;5040490;28;20550;-82
2024/04/06 08:17:43;;;;;;;12.77;1.60;;;17.30;1.00;;;;;;5040498;28;20408;-82
2024/04/06 08:20:09;;;;;;;12.83;1.20;;;17.30;1.00;;;;;;5040326;28;20407;-82
2024/04/06 08:22:35;;;;;;;18.00;1.40;;;17.40;1.00;;;;;;5040138;28;20417;-83
2024/04/06 08:25:05;;;;;;;16.40;1.20;;;17.40;1.00;;;;;;5022117;28;20420;-81
2024/04/06 08:27:34;;;;;;;13.90;1.83;;;17.50;1.00;;;;;;5022413;28;20405;-82
2024/04/06 08:30:07;;;;;;;17.40;2.00;;;17.60;1.00;;;;;;5036745;28;20490;-82
2024/04/06 08:32:36;;;;;;;13.33;1.37;;;17.70;1.00;;;;;;5036038;28;20425;-82
2024/04/06 08:35:02;;;;;;;13.80;1.47;;;17.60;1.00;;;;;;5035723;28;20405;-81
2024/04/06 08:37:28;;;;;;;14.17;1.47;;;17.50;1.00;;;;;;5036050;28;20397;-82
2024/04/06 08:39:54;;;;;;;12.57;1.23;;;17.70;1.00;;;;;;5036307;28;20989;-82
2024/04/06 08:42:21;;;;;;;13.90;1.30;;;17.80;1.00;;;;;;5035831;28;20889;-83
2024/04/06 08:44:47;;;;;;;13.80;1.23;;;17.90;1.00;;;;;;5035676;28;20185;-83
2024/04/06 08:47:19;;;;;;;13.67;1.87;;;17.90;1.00;;;;;;5036000;28;20400;-82
2024/04/06 08:49:46;;;;;;;13.40;1.20;;;17.90;1.00;;;;;;5035711;28;20829;-83
2024/04/06 08:52:12;;;;;;;14.00;1.20;;;18.00;1.00;;;;;;5035863;28;20511;-83
2024/04/06 08:54:38;;;;;;;13.90;1.27;;;18.10;1.00;;;;;;5035740;28;20498;-82
2024/04/06 08:57:04;;;;;;;12.20;1.10;;;18.30;1.00;;;;;;5017441;28;20546;-81
2024/04/06 08:59:34;;;;;;;15.50;1.50;;;18.00;1.00;;;;;;5035135;28;20424;-83
2024/04/06 09:02:01;;;;;;;14.17;1.20;;;18.10;1.00;;;;;;5035151;28;20432;-83
2024/04/06 09:04:26;;;;;;;15.00;1.33;;;18.10;1.00;;;;;;5035327;28;20409;-82
2024/04/06 09:06:52;;;;;;;12.43;1.10;;;18.40;1.00;;;;;;5035330;28;20539;-82
2024/04/06 09:09:18;;;;;;;14.17;1.60;;;18.30;1.00;;;;;;5035352;28;20645;-83
2024/04/06 09:11:44;;;;;;;12.60;1.33;;;18.30;1.00;;;;;;5034743;28;20209;-83
2024/04/06 09:14:11;;;;;;;13.33;1.23;;;18.40;1.00;;;;;;5035290;28;20193;-82
2024/04/06 09:16:39;;;;;;;12.63;1.30;;;18.50;1.00;;;;;;5035054;28;20470;-82
2024/04/06 09:19:05;;;;;;;12.60;0.93;;;18.70;1.00;;;;;;5037834;28;20424;-83
2024/04/06 09:21:34;;;;;;;12.50;1.00;;;18.80;1.00;;;;;;5040039;28;20433;-83
2024/04/06 09:24:01;;;;;;;12.30;1.20;;;18.80;1.00;;;;;;5020672;28;20424;-81
2024/04/06 09:26:33;;;;;;;12.90;1.20;;;19.00;1.00;;;;;;5036792;28;20401;-83
2024/04/06 09:29:00;;;;;;;15.30;1.37;;;19.10;1.00;;;;;;5038090;28;20474;-83
2024/04/06 09:31:27;;;;;;;13.77;1.60;;;19.20;1.00;;;;;;5038398;28;20791;-83
2024/04/06 09:33:58;;;;;;;13.23;1.30;;;19.40;1.00;;;;;;5003259;28;20846;-83
2024/04/06 09:36:24;;;;;;;13.00;1.60;;;19.50;1.00;;;;;;5037014;28;20395;-83
2024/04/06 09:38:52;;;;;;;12.60;1.17;;;19.70;1.00;;;;;;5036479;28;20427;-83
2024/04/06 09:41:27;;;;;;;14.07;1.20;;;19.80;1.00;;;;;;5035728;28;20424;-83
2024/04/06 09:43:54;;;;;;;19.50;1.30;;;19.90;1.00;;;;;;5036032;28;20909;-83
2024/04/06 09:46:20;;;;;;;13.90;1.03;;;20.10;1.00;;;;;;5035593;28;20428;-83
2024/04/06 09:48:47;;;;;;;12.90;1.10;;;20.40;1.00;;;;;;5018046;28;21016;-83
2024/04/06 09:51:13;;;;;;;13.10;1.27;;;20.50;1.00;;;;;;5035312;28;20790;-83
2024/04/06 09:53:41;;;;;;;12.47;1.23;;;20.70;1.00;;;;;;5035187;28;20412;-83
2024/04/06 09:56:11;;;;;;;14.53;1.20;;;20.70;1.00;;;;;;5035215;28;20397;-83
2024/04/06 09:58:46;;;;;;;12.40;1.30;;;20.80;1.00;;;;;;5035055;28;20820;-83
2024/04/06 10:01:12;;;;;;;12.40;1.17;;;21.00;1.00;;;;;;5035063;28;20402;-83
2024/04/06 10:03:48;;;;;;;12.07;1.10;;;21.10;1.00;;;;;;5035565;28;20496;-83
2024/04/06 10:06:21;;;;;;;12.83;1.53;;;21.30;1.00;;;;;;5034457;28;20565;-83
2024/04/06 10:08:59;;;;;;;12.30;1.20;;;21.50;1.00;;;;;;5034148;28;20459;-83
2024/04/06 10:11:27;;;;;;;12.87;1.30;;;21.70;1.00;;;;;;5034149;28;20434;-82
2024/04/06 10:13:53;;;;;;;11.90;1.17;;;21.90;1.00;;;;;;5017144;28;20415;-83
2024/04/06 10:16:21;;;;;;;13.53;1.30;;;22.10;1.00;;;;;;5035024;28;20406;-83
2024/04/06 10:18:48;;;;;;;12.20;1.10;;;22.30;1.00;;;;;;5017213;28;20216;-83
2024/04/06 10:21:16;;;;;;;12.50;1.63;;;22.40;1.00;;;;;;5016431;28;20435;-83
2024/04/06 10:23:46;;;;;;;12.70;1.43;;;22.50;1.00;;;;;;5036334;28;20408;-82
2024/04/06 10:26:16;;;;;;;13.73;1.73;;;22.50;1.00;;;;;;5019773;28;20465;-83
2024/04/06 10:28:45;;;;;;;12.80;1.53;;;22.70;1.00;;;;;;5037415;28;20432;-82
2024/04/06 10:31:11;;;;;;;15.00;1.83;;;22.90;1.00;;;;;;5037552;28;20436;-83
2024/04/06 10:33:38;;;;;;;15.20;1.97;;;23.20;1.00;;;;;;5037513;28;20392;-83
2024/04/06 10:36:13;;;;;;;12.70;1.43;;;23.30;1.00;;;;;;5037520;28;20642;-83
2024/04/06 10:38:39;;;;;;;12.40;1.40;;;23.50;1.00;;;;;;5037468;28;20415;-83
2024/04/06 10:41:11;;;;;;;15.00;2.13;;;23.70;1.00;;;;;;5037724;28;20407;-83
2024/04/06 10:43:37;;;;;;;12.83;1.33;;;23.70;1.00;;;;;;5037688;28;20471;-83
2024/04/06 10:46:19;;;;;;;14.37;1.80;;;23.60;1.00;;;;;;5037256;28;20989;-83
2024/04/06 10:48:45;;;;;;;12.30;1.47;;;23.50;1.00;;;;;;5037438;28;20670;-83
2024/04/06 10:51:12;;;;;;;15.00;1.60;;;23.20;1.00;;;;;;5037539;28;20411;-83
2024/04/06 10:53:38;;;;;;;13.37;1.70;;;23.30;1.00;;;;;;5019492;28;20172;-83
2024/04/06 10:56:04;;;;;;;17.27;2.67;;;23.40;1.00;;;;;;5037585;28;20404;-83
2024/04/06 10:58:30;;;;;;;14.43;2.30;;;23.50;1.00;;;;;;5020226;28;20172;-84
2024/04/06 11:00:56;;;;;;;16.50;3.70;;;23.60;1.00;;;;;;5038565;28;20408;-83
2024/04/06 11:03:22;;;;;;;14.53;2.10;;;23.70;1.00;;;;;;5021033;28;20172;-84
2024/04/06 11:05:48;;;;;;;21.03;1.73;;;23.90;1.00;;;;;;5038779;28;20203;-83
2024/04/06 11:08:13;;;;;;;15.00;2.13;;;24.10;1.00;;;;;;5037992;28;20487;-83
2024/04/06 11:10:39;;;;;;;13.93;2.27;;;24.10;1.00;;;;;;5037736;28;20507;-83
2024/04/06 11:13:05;;;;;;;12.90;1.67;;;24.20;1.00;;;;;;5037942;28;20197;-83
2024/04/06 11:15:31;;;;;;;12.17;1.37;;;24.40;1.00;;;;;;5021878;28;20207;-84
2024/04/06 11:20:25;;;;;;;15.30;1.57;;;24.60;1.00;;;;;;5038264;28;20206;-83
2024/04/06 11:22:51;;;;;;;13.10;1.90;;;24.80;1.00;;;;;;5055584;28;20514;-82
2024/04/06 11:25:19;;;;;;;13.93;1.50;;;24.90;1.00;;;;;;5059921;28;20436;-84
2024/04/06 11:27:49;;;;;;;12.10;1.00;;;25.20;1.00;;;;;;5042577;28;20238;-87
2024/04/06 11:30:18;;;;;;;12.47;1.50;;;25.50;1.00;;;;;;5059889;28;20521;-84
2024/04/06 11:32:45;;;;;;;13.33;1.60;;;25.60;1.00;;;;;;5059489;28;20457;-84
2024/04/06 11:35:11;;;;;;;11.53;1.03;;;25.50;1.00;;;;;;5059868;28;20408;-85
2024/04/06 11:37:38;;;;;;;12.10;0.93;;;25.60;1.00;;;;;;5060560;28;20547;-85
2024/04/06 11:40:04;;;;;;;13.30;1.57;;;25.60;1.00;;;;;;5061921;28;20508;-84
2024/04/06 11:42:30;;;;;;;13.30;1.83;;;25.60;1.00;;;;;;5061551;28;20424;-85
2024/04/06 11:44:59;;;;;;;11.97;1.50;;;25.60;1.00;;;;;;5060111;28;20411;-84
2024/04/06 11:47:25;;;;;;;12.37;1.40;;;25.90;1.00;;;;;;5042515;28;20588;-85
2024/04/06 11:49:51;;;;;;;13.10;1.57;;;26.00;1.00;;;;;;5059613;28;20443;-84
2024/04/06 11:52:28;;;;;;;14.07;1.90;;;26.10;99.90;;;;;;5040621;28;20439;-85
2024/04/06 11:55:37;;;;;;;18.00;1.67;;;26.10;99.90;;;;;;5038733;28;20434;-85
2024/04/06 11:58:03;;;;;;;11.40;1.20;;;26.00;99.90;;;;;;5039479;28;20410;-88
2024/04/06 12:00:30;;;;;;;11.50;1.40;;;25.90;99.90;;;;;;5057375;28;20439;-84
2024/04/06 12:02:56;;;;;;;13.80;1.50;;;26.00;99.90;;;;;;5055152;28;20494;-85
2024/04/06 12:08:42;;;;;;;11.60;1.20;;;26.00;1.00;;;;;;5043648;28;20169;-86
2024/04/06 12:11:08;;;;;;;12.73;0.93;;;25.90;99.90;;;;;;5057842;28;20471;-85
2024/04/06 12:13:34;;;;;;;12.50;1.17;;;25.70;99.90;;;;;;5038233;28;20435;-85
2024/04/06 12:15:59;;;;;;;17.93;1.63;;;25.60;99.90;;;;;;5055957;28;20172;-85
2024/04/06 12:18:25;;;;;;;11.03;0.90;;;25.70;99.90;;;;;;5056703;28;20984;-86
2024/04/06 12:20:51;;;;;;;13.07;1.30;;;25.70;99.90;;;;;;5037544;28;20218;-85
2024/04/06 12:23:17;;;;;;;14.37;1.20;;;25.90;1.00;;;;;;5055288;28;20188;-85
2024/04/06 12:25:43;;;;;;;12.10;0.73;;;26.10;99.90;;;;;;5055457;28;20157;-85
2024/04/06 12:28:11;;;;;;;11.10;0.87;;;26.30;99.90;;;;;;5055453;28;20486;-85
2024/04/06 12:30:37;;;;;;;11.40;1.03;;;26.30;99.90;;;;;;5038878;28;20248;-85
2024/04/06 12:33:03;;;;;;;12.10;1.40;;;26.30;99.90;;;;;;5037960;28;20823;-85
2024/04/06 12:35:28;;;;;;;12.10;0.80;;;26.40;99.90;;;;;;5038082;28;20169;-85
2024/04/06 12:37:55;;;;;;;11.40;0.93;;;26.50;99.90;;;;;;5056126;28;20482;-86
2024/04/06 12:40:25;;;;;;;13.73;1.30;;;26.50;99.90;;;;;;5038003;28;20184;-86
2024/04/06 12:42:52;;;;;;;17.90;2.33;;;26.50;99.90;;;;;;5039734;28;20431;-86